Time;durP1;ratioP1;P1;durP2;ratioP2;P2;SDS_P1;SDS_P2;PMS_P1;PMS_P2;Temp;Humidity;BMP_temperature;BMP_pressure;BME280_temperature;BME280_humidity;BME280_pressure;Samples;Min_cycle;Max_cycle;Signal;HPM_P1;HPM_P2
2023/11/23 00:01:18;;;;;;;;;;;;;;;9.63;74.55;94916.53;4198024;28;20048;-69
2023/11/23 00:03:20;;;;;;;9.35;7.05;;;;;;;9.63;75.17;94913.94;4206799;28;20016;-69
2023/11/23 00:05:22;;;;;;;7.47;6.15;;;;;;;9.66;75.08;94912.84;4199006;28;20071;-68
2023/11/23 00:07:24;;;;;;;8.10;6.10;;;;;;;9.70;74.36;94922.03;4181690;28;20048;-69
2023/11/23 00:09:26;;;;;;;9.70;5.90;;;;;;;9.74;74.34;94925.97;4169774;28;20053;-68
2023/11/23 00:11:28;;;;;;;8.15;6.50;;;;;;;9.66;74.90;94925.06;4186451;28;20136;-68
2023/11/23 00:13:30;;;;;;;8.52;6.20;;;;;;;9.60;75.41;94931.72;4184121;28;20104;-68
2023/11/23 00:15:32;;;;;;;8.13;5.93;;;;;;;9.62;75.73;94927.19;4189423;28;20052;-69
2023/11/23 00:17:35;;;;;;;8.55;6.28;;;;;;;9.64;75.22;94922.63;4186835;28;20045;-66
2023/11/23 00:19:37;;;;;;;8.25;6.10;;;;;;;9.68;75.61;94921.34;4191388;28;20142;-68
2023/11/23 00:21:39;;;;;;;8.73;6.32;;;;;;;9.72;75.77;94930.56;4191180;28;20071;-67
2023/11/23 00:23:41;;;;;;;7.95;6.45;;;;;;;9.74;75.36;94933.00;4193474;28;20446;-68
2023/11/23 00:25:44;;;;;;;8.23;6.53;;;;;;;9.76;74.97;94931.88;4196601;28;20048;-67
2023/11/23 00:27:46;;;;;;;8.15;6.30;;;;;;;9.78;75.12;94935.16;4196091;28;20047;-69
2023/11/23 00:29:48;;;;;;;8.90;6.68;;;;;;;9.77;75.42;94936.16;4197381;28;20052;-67
2023/11/23 00:31:50;;;;;;;7.60;5.85;;;;;;;9.80;75.36;94942.88;4191098;28;20470;-68
2023/11/23 00:33:51;;;;;;;7.95;5.97;;;;;;;9.77;75.30;94938.78;4177501;28;20502;-67
2023/11/23 00:35:54;;;;;;;6.85;6.13;;;;;;;9.75;75.70;94940.72;4176459;28;20053;-66
2023/11/23 00:37:56;;;;;;;9.63;6.43;;;;;;;9.75;76.30;94945.94;4197343;28;20115;-66
2023/11/23 00:39:57;;;;;;;9.23;6.95;;;;;;;9.75;76.15;94951.19;4179940;28;20131;-68
2023/11/23 00:41:59;;;;;;;9.30;6.93;;;;;;;9.64;76.34;94959.25;4190060;28;20045;-67
2023/11/23 00:44:02;;;;;;;8.30;6.82;;;;;;;9.53;77.08;94964.66;4193140;28;20491;-68
2023/11/23 00:46:04;;;;;;;8.57;6.97;;;;;;;9.54;77.65;94974.16;4188628;28;20090;-66
2023/11/23 00:48:06;;;;;;;9.18;7.20;;;;;;;9.56;77.89;94965.19;4174556;28;20591;-68
2023/11/23 00:50:08;;;;;;;7.97;6.55;;;;;;;9.60;77.31;94965.72;4192534;28;20056;-68
2023/11/23 00:52:10;;;;;;;10.13;7.03;;;;;;;9.63;77.33;94958.41;4192971;28;20053;-67
2023/11/23 00:54:12;;;;;;;8.02;7.10;;;;;;;9.67;77.66;94960.72;4194585;28;20053;-68
2023/11/23 00:56:15;;;;;;;8.88;6.85;;;;;;;9.66;77.25;94961.69;4196002;28;20044;-69
2023/11/23 00:58:16;;;;;;;7.97;7.17;;;;;;;9.61;77.84;94962.13;4178755;28;20045;-67
2023/11/23 01:00:18;;;;;;;10.10;7.30;;;;;;;9.59;77.49;94962.31;4188700;28;20045;-66
2023/11/23 01:02:20;;;;;;;8.43;7.43;;;;;;;9.62;77.71;94966.41;4185462;28;20053;-67
2023/11/23 01:04:22;;;;;;;9.88;7.80;;;;;;;9.63;77.47;94961.00;4187189;28;20416;-69
2023/11/23 01:06:24;;;;;;;9.63;6.88;;;;;;;9.64;77.92;94960.06;4195972;28;20056;-69
2023/11/23 01:08:26;;;;;;;9.02;7.28;;;;;;;9.64;77.82;94964.47;4196720;28;20044;-68
2023/11/23 01:10:27;;;;;;;9.50;7.57;;;;;;;9.63;78.12;94962.81;4196370;28;20131;-69
2023/11/23 01:12:29;;;;;;;9.05;7.15;;;;;;;9.63;78.14;94962.81;4186966;28;20131;-66
2023/11/23 01:14:31;;;;;;;9.85;7.82;;;;;;;9.63;77.49;94970.66;4190112;28;20045;-67
2023/11/23 01:16:33;;;;;;;7.43;6.55;;;;;;;9.62;78.04;94971.63;4184277;28;20053;-67
2023/11/23 01:18:35;;;;;;;10.52;7.38;;;;;;;9.61;78.00;94967.38;4195557;28;20048;-67
2023/11/23 01:20:37;;;;;;;10.50;7.43;;;;;;;9.59;77.93;94967.53;4187783;28;20110;-68
2023/11/23 01:22:39;;;;;;;8.70;7.13;;;;;;;9.58;77.96;94965.88;4196960;28;20060;-68
2023/11/23 01:24:40;;;;;;;11.68;6.65;;;;;;;9.55;78.34;94965.31;4186257;28;20067;-68
2023/11/23 01:26:42;;;;;;;7.28;6.22;;;;;;;9.56;78.12;94962.56;4192203;28;20088;-68
2023/11/23 01:28:44;;;;;;;8.13;6.40;;;;;;;9.56;77.97;94965.19;4195729;28;20062;-67
2023/11/23 01:30:46;;;;;;;7.10;5.82;;;;;;;9.54;78.18;94966.31;4191121;28;20045;-68
2023/11/23 01:32:48;;;;;;;6.55;5.85;;;;;;;9.57;78.03;94971.25;4195331;28;20552;-66
2023/11/23 01:34:50;;;;;;;9.15;6.20;;;;;;;9.55;78.00;94971.41;4190448;28;20048;-67
2023/11/23 01:36:52;;;;;;;9.57;6.18;;;;;;;9.55;78.44;94978.41;4189361;28;20076;-67
2023/11/23 01:38:54;;;;;;;8.70;6.22;;;;;;;9.52;78.11;94981.31;4196567;28;20132;-68
2023/11/23 01:40:56;;;;;;;8.75;6.53;;;;;;;9.45;78.25;94986.31;4195185;28;20098;-67
2023/11/23 01:43:09;;;;;;;6.93;5.85;;;;;;;9.42;79.26;94979.59;4186705;28;20132;-68
2023/11/23 01:45:12;;;;;;;6.85;5.32;;;;;;;9.20;78.58;94977.34;4195487;28;20241;-68
2023/11/23 01:47:14;;;;;;;6.50;5.10;;;;;;;8.97;79.37;94972.47;4185405;28;20071;-68
2023/11/23 01:49:17;;;;;;;6.95;5.03;;;;;;;9.00;80.11;94977.41;4167705;28;20512;-68
2023/11/23 01:51:19;;;;;;;8.27;5.90;;;;;;;9.10;80.09;94981.75;4192761;28;20055;-69
2023/11/23 01:53:21;;;;;;;6.50;4.93;;;;;;;9.19;80.49;94986.16;4177689;28;20061;-67
2023/11/23 01:55:23;;;;;;;6.75;5.55;;;;;;;9.28;79.78;94982.66;4196005;28;20087;-68
2023/11/23 01:57:31;;;;;;;7.70;5.53;;;;;;;9.33;79.85;94983.06;4194274;28;20048;-67
2023/11/23 01:59:36;;;;;;;6.47;5.10;;;;;;;9.36;80.11;94988.00;4192669;28;20131;-67
2023/11/23 02:01:37;;;;;;;7.07;5.00;;;;;;;9.34;79.49;94994.34;4191563;28;20123;-67
2023/11/23 02:03:39;;;;;;;6.00;4.88;;;;;;;9.32;79.57;94986.66;4180072;28;20095;-68
2023/11/23 02:05:41;;;;;;;7.20;5.10;;;;;;;9.36;79.26;94988.00;4187930;28;20075;-68
2023/11/23 02:07:44;;;;;;;6.72;5.35;;;;;;;9.36;79.17;94982.78;4192187;28;20044;-67
2023/11/23 02:09:46;;;;;;;6.10;5.03;;;;;;;9.40;78.88;94984.13;4191830;28;20082;-69
2023/11/23 02:11:48;;;;;;;6.03;5.32;;;;;;;9.46;78.86;94989.75;4195116;28;20048;-70
2023/11/23 02:13:50;;;;;;;7.68;6.15;;;;;;;9.45;78.83;94993.34;4178173;28;20055;-67
2023/11/23 02:15:52;;;;;;;8.27;6.63;;;;;;;9.48;79.08;94990.44;4176862;28;20083;-68
2023/11/23 02:18:01;;;;;;;7.32;6.00;;;;;;;9.51;78.90;94988.34;4186770;28;20040;-67
2023/11/23 02:20:08;;;;;;;6.10;4.40;;;;;;;9.48;78.49;94990.44;4193142;28;20127;-67
2023/11/23 02:22:10;;;;;;;6.30;4.32;;;;;;;9.47;77.92;94994.03;4177159;28;20053;-65
2023/11/23 02:24:12;;;;;;;5.90;5.05;;;;;;;9.51;78.89;94984.91;4195918;28;20044;-67
2023/11/23 02:26:14;;;;;;;5.50;4.75;;;;;;;9.51;78.65;94988.34;4188166;28;20075;-66
2023/11/23 02:28:16;;;;;;;5.47;4.53;;;;;;;9.47;78.16;94983.56;4190660;28;20040;-68
2023/11/23 02:30:21;;;;;;;6.78;5.03;;;;;;;9.42;78.75;94989.19;4194680;28;20067;-68
2023/11/23 02:32:25;;;;;;;4.88;4.30;;;;;;;9.30;78.70;94993.81;4192407;28;20411;-68
2023/11/23 02:34:27;;;;;;;5.03;4.47;;;;;;;9.25;79.03;94996.03;4178035;28;20049;-67
2023/11/23 02:36:29;;;;;;;5.13;4.28;;;;;;;9.18;79.03;95001.03;4195673;28;20063;-67
2023/11/23 02:38:31;;;;;;;5.05;4.18;;;;;;;9.10;78.66;94992.22;4195124;28;20123;-65
2023/11/23 02:40:33;;;;;;;5.75;4.53;;;;;;;9.02;79.14;94995.56;4195079;28;20490;-67
2023/11/23 02:42:34;;;;;;;6.25;4.68;;;;;;;8.97;79.20;94993.38;4194900;28;20049;-66
2023/11/23 02:44:36;;;;;;;5.30;4.45;;;;;;;8.96;79.51;94996.94;4191827;28;20052;-67
2023/11/23 02:46:38;;;;;;;5.50;4.00;;;;;;;8.97;79.45;95002.97;4191000;28;20045;-68
2023/11/23 02:48:40;;;;;;;5.70;4.70;;;;;;;8.95;78.93;95004.94;4192216;28;20513;-68
2023/11/23 02:50:42;;;;;;;5.07;3.85;;;;;;;8.98;80.00;95002.84;4190115;28;20052;-67
2023/11/23 02:52:44;;;;;;;5.32;4.47;;;;;;;9.00;79.96;95005.34;4192561;28;20129;-70
2023/11/23 02:54:46;;;;;;;4.25;3.58;;;;;;;8.95;79.78;95010.16;4193490;28;20044;-67
2023/11/23 02:56:48;;;;;;;4.40;3.75;;;;;;;8.93;80.33;95019.94;4194131;28;20482;-66
2023/11/23 02:58:50;;;;;;;4.97;3.97;;;;;;;8.95;79.96;95018.00;4195343;28;20080;-67
2023/11/23 03:00:51;;;;;;;5.22;3.65;;;;;;;8.98;79.97;95015.91;4194550;28;20059;-67
2023/11/23 03:02:54;;;;;;;4.10;3.67;;;;;;;8.88;79.57;95024.75;4195680;28;20098;-67
2023/11/23 03:04:56;;;;;;;4.55;3.85;;;;;;;8.82;80.02;95029.56;4180180;28;20045;-68
2023/11/23 03:06:58;;;;;;;4.95;3.88;;;;;;;8.82;80.79;95037.41;4181515;28;20057;-68
2023/11/23 03:09:00;;;;;;;4.45;3.60;;;;;;;8.87;81.03;95036.16;4166230;28;20547;-68
2023/11/23 03:11:04;;;;;;;4.50;3.40;;;;;;;8.92;80.76;95033.94;4184559;28;20170;-67
2023/11/23 03:13:06;;;;;;;4.50;3.65;;;;;;;8.96;80.59;95043.97;4190832;28;20053;-68
2023/11/23 03:15:08;;;;;;;4.80;3.80;;;;;;;9.04;80.29;95037.25;4166707;28;20111;-67
2023/11/23 03:17:10;;;;;;;5.45;4.38;;;;;;;9.09;80.81;95043.66;4194058;28;20441;-67
2023/11/23 03:19:13;;;;;;;4.18;3.25;;;;;;;9.17;80.70;95037.75;4198391;28;20043;-67
2023/11/23 03:21:15;;;;;;;4.03;3.10;;;;;;;8.90;79.60;95041.91;4196750;28;20048;-66
2023/11/23 03:23:16;;;;;;;4.47;3.10;;;;;;;8.85;80.46;95031.06;4198704;28;20123;-66
2023/11/23 03:25:18;;;;;;;3.95;2.95;;;;;;;8.90;81.16;95039.31;4178913;28;20073;-66
2023/11/23 03:27:20;;;;;;;4.22;3.63;;;;;;;8.96;81.15;95043.97;4197253;28;20051;-68
2023/11/23 03:29:22;;;;;;;4.78;3.20;;;;;;;9.02;80.96;95038.19;4198425;28;20048;-68
2023/11/23 03:31:24;;;;;;;3.38;2.80;;;;;;;9.05;80.43;95047.53;4194457;28;20491;-68
2023/11/23 03:33:26;;;;;;;3.97;2.97;;;;;;;8.99;80.48;95038.47;4195292;28;20036;-68
2023/11/23 03:35:28;;;;;;;4.57;2.90;;;;;;;9.00;80.54;95045.34;4195734;28;20048;-66
2023/11/23 03:37:29;;;;;;;5.13;2.95;;;;;;;9.07;80.76;95040.38;4195747;28;20135;-68
2023/11/23 03:39:31;;;;;;;4.88;2.90;;;;;;;9.10;80.55;95031.41;4195010;28;20127;-68
2023/11/23 03:41:34;;;;;;;3.55;2.55;;;;;;;8.85;80.63;95041.53;4194809;28;20056;-66
2023/11/23 03:43:36;;;;;;;3.70;2.60;;;;;;;8.82;80.95;95041.81;4195604;28;20075;-66
2023/11/23 03:45:37;;;;;;;7.30;2.58;;;;;;;8.80;81.06;95048.97;4195201;28;20052;-69
2023/11/23 03:47:39;;;;;;;3.85;2.88;;;;;;;8.80;81.79;95048.97;4187143;28;20095;-68
2023/11/23 03:49:41;;;;;;;3.45;2.67;;;;;;;8.87;81.38;95055.28;4178674;28;20076;-65
2023/11/23 03:51:43;;;;;;;3.33;2.70;;;;;;;8.85;81.45;95049.38;4198126;28;20552;-67
2023/11/23 03:53:46;;;;;;;4.30;2.60;;;;;;;8.80;81.12;95049.78;4191318;28;20057;-65
2023/11/23 03:55:47;;;;;;;5.07;2.67;;;;;;;8.65;81.64;95045.97;4192478;28;20472;-67
2023/11/23 03:57:49;;;;;;;3.83;2.45;;;;;;;8.54;82.07;95052.16;4182798;28;20053;-66
2023/11/23 03:59:51;;;;;;;3.63;2.92;;;;;;;8.44;82.46;95053.09;4185105;28;20102;-67
2023/11/23 04:01:53;;;;;;;4.78;2.90;;;;;;;8.50;82.81;95052.56;4191087;28;20068;-67
2023/11/23 04:03:55;;;;;;;4.68;2.90;;;;;;;8.61;83.40;95057.63;4190945;28;20048;-68
2023/11/23 04:05:58;;;;;;;4.75;2.85;;;;;;;8.73;83.22;95055.69;4185539;28;20045;-65
2023/11/23 04:08:00;;;;;;;4.75;2.90;;;;;;;8.82;83.11;95050.47;4157117;28;20061;-69
2023/11/23 04:10:03;;;;;;;4.65;2.45;;;;;;;8.77;81.65;95062.28;4189680;28;20049;-68
2023/11/23 04:12:06;;;;;;;3.63;2.75;;;;;;;8.74;82.06;95065.19;4192753;28;20094;-67
2023/11/23 04:14:08;;;;;;;3.63;2.78;;;;;;;8.63;82.22;95074.00;4197743;28;20140;-68
2023/11/23 04:16:10;;;;;;;3.33;2.72;;;;;;;8.59;82.09;95070.00;4193681;28;20052;-68
2023/11/23 04:18:12;;;;;;;4.55;3.00;;;;;;;8.50;82.45;95065.63;4190866;28;20087;-66
2023/11/23 04:20:14;;;;;;;3.92;3.08;;;;;;;8.30;82.92;95067.34;4195138;28;20098;-67
2023/11/23 04:22:16;;;;;;;3.92;3.05;;;;;;;8.17;83.84;95068.44;4185727;28;20547;-66
2023/11/23 04:24:18;;;;;;;4.65;3.65;;;;;;;8.21;84.08;95072.41;4197508;28;20048;-68
2023/11/23 04:26:20;;;;;;;4.97;3.90;;;;;;;7.87;84.50;95073.72;4196064;28;20056;-67
2023/11/23 04:28:22;;;;;;;5.90;4.05;;;;;;;7.66;86.49;95071.16;4186412;28;20049;-68
2023/11/23 04:30:23;;;;;;;7.97;4.65;;;;;;;7.70;86.66;95077.78;4185141;28;20122;-67
2023/11/23 04:32:25;;;;;;;5.90;4.20;;;;;;;7.89;86.93;95066.59;4187590;28;20094;-68
2023/11/23 04:34:27;;;;;;;4.95;4.25;;;;;;;8.07;86.85;95062.38;4190934;28;20410;-66
2023/11/23 04:36:29;;;;;;;6.10;4.70;;;;;;;8.28;86.33;95059.66;4189469;28;20059;-68
2023/11/23 04:38:31;;;;;;;5.03;4.43;;;;;;;8.43;86.41;95064.50;4198702;28;20101;-68
2023/11/23 04:40:33;;;;;;;4.20;3.70;;;;;;;8.56;85.28;95070.25;4195296;28;20044;-68
2023/11/23 04:42:35;;;;;;;4.40;3.78;;;;;;;8.36;83.95;95078.06;4174690;28;20080;-68
2023/11/23 04:44:37;;;;;;;5.75;3.30;;;;;;;8.30;83.82;95075.16;4189914;28;20099;-68
2023/11/23 04:46:38;;;;;;;6.20;3.72;;;;;;;8.10;84.05;95077.75;4192385;28;20080;-68
2023/11/23 04:48:40;;;;;;;4.93;3.78;;;;;;;8.12;85.44;95078.44;4193235;28;20066;-68
2023/11/23 04:50:42;;;;;;;4.32;3.60;;;;;;;8.06;85.06;95080.78;4190910;28;20110;-68
2023/11/23 04:52:44;;;;;;;5.03;3.70;;;;;;;7.94;85.46;95080.88;4196148;28;20070;-68
2023/11/23 04:54:46;;;;;;;5.13;3.92;;;;;;;7.98;85.78;95076.25;4183842;28;20513;-67
2023/11/23 04:56:50;;;;;;;5.13;3.88;;;;;;;8.06;85.73;95080.78;4195178;28;20457;-68
2023/11/23 04:58:52;;;;;;;4.90;4.18;;;;;;;7.99;85.71;95083.09;4196772;28;20098;-67
2023/11/23 05:00:54;;;;;;;5.53;4.55;;;;;;;8.14;86.71;95080.94;4195129;28;20050;-70
2023/11/23 05:02:55;;;;;;;5.32;4.38;;;;;;;8.23;86.27;95084.50;4199011;28;20087;-69
2023/11/23 05:04:57;;;;;;;6.13;4.40;;;;;;;8.31;85.24;95085.47;4197356;28;20447;-70
2023/11/23 05:06:59;;;;;;;5.22;4.47;;;;;;;8.38;85.31;95076.13;4197332;28;20544;-69
2023/11/23 05:09:02;;;;;;;5.43;4.82;;;;;;;8.44;85.39;95077.44;4196344;28;20345;-69
2023/11/23 05:11:04;;;;;;;6.25;5.57;;;;;;;8.50;84.86;95073.44;4166723;28;20056;-69
2023/11/23 05:13:06;;;;;;;6.90;5.82;;;;;;;8.54;85.03;95075.66;4196712;28;20606;-70
2023/11/23 05:15:08;;;;;;;7.63;6.57;;;;;;;8.55;83.87;95081.69;4197401;28;20483;-71
2023/11/23 05:17:10;;;;;;;7.68;6.50;;;;;;;8.54;83.19;95083.47;4195667;28;20395;-70
2023/11/23 05:19:12;;;;;;;6.85;6.13;;;;;;;8.57;83.56;95083.19;4197162;28;20047;-69
2023/11/23 05:21:19;;;;;;;7.60;6.10;;;;;;;8.58;83.46;95086.63;4185847;28;20136;-69
2023/11/23 05:23:21;;;;;;;6.97;6.25;;;;;;;8.56;83.94;95093.78;4164076;28;20099;-69
2023/11/23 05:25:23;;;;;;;7.68;6.22;;;;;;;8.57;83.21;95095.44;4193835;28;20048;-70
2023/11/23 05:27:25;;;;;;;8.07;7.00;;;;;;;8.57;83.32;95092.81;4193407;28;20671;-70
2023/11/23 05:29:27;;;;;;;7.43;6.30;;;;;;;8.57;83.25;95087.59;4191238;28;20049;-69
2023/11/23 05:31:29;;;;;;;7.22;5.78;;;;;;;8.60;83.46;95090.78;4191625;28;20481;-69
2023/11/23 05:33:30;;;;;;;8.68;6.68;;;;;;;8.57;83.29;95085.81;4193324;28;20606;-69
2023/11/23 05:35:32;;;;;;;8.48;6.72;;;;;;;8.44;83.33;95085.25;4196799;28;20051;-70
2023/11/23 05:37:34;;;;;;;8.50;6.90;;;;;;;8.24;84.05;95091.38;4196739;28;20459;-71
2023/11/23 05:39:37;;;;;;;8.00;6.93;;;;;;;8.18;84.83;95093.56;4179175;28;20060;-66
2023/11/23 05:41:44;;;;;;;10.57;6.63;;;;;;;8.15;84.97;95103.44;4178340;28;20055;-71
2023/11/23 05:43:47;;;;;;;9.02;6.93;;;;;;;7.95;85.77;95098.19;4179068;28;20491;-70
2023/11/23 05:45:48;;;;;;;11.35;7.68;;;;;;;7.88;86.12;95099.69;4193593;28;20123;-71
2023/11/23 05:47:54;;;;;;;9.32;8.23;;;;;;;7.84;87.29;95105.28;4195219;28;20048;-71
2023/11/23 05:50:01;;;;;;;10.25;8.48;;;;;;;7.92;86.89;95105.47;4189177;28;20128;-68
2023/11/23 05:52:03;;;;;;;11.57;9.40;;;;;;;7.97;87.27;95114.53;4192773;28;20475;-69
2023/11/23 05:54:05;;;;;;;11.85;10.27;;;;;;;7.94;86.73;95114.81;4196653;28;20044;-71
2023/11/23 05:56:07;;;;;;;12.68;10.85;;;;;;;8.02;87.00;95115.91;4196099;28;20480;-69
2023/11/23 05:58:09;;;;;;;13.85;10.90;;;;;;;8.10;86.80;95121.28;4190492;28;20076;-69
2023/11/23 06:00:12;;;;;;;15.13;11.77;;;;;;;8.11;86.80;95125.53;4178576;28;20053;-70
2023/11/23 06:02:13;;;;;;;15.75;14.13;;;;;;;8.09;86.27;95130.91;4171970;28;20044;-69
2023/11/23 06:04:16;;;;;;;22.60;19.27;;;;;;;8.00;86.01;95135.16;4192911;28;20048;-71
2023/11/23 06:06:22;;;;;;;19.65;16.95;;;;;;;7.99;86.55;95137.88;4182429;28;20063;-72
2023/11/23 06:08:27;;;;;;;21.38;19.05;;;;;;;7.97;87.08;95134.56;4175252;28;20099;-69
2023/11/23 06:10:29;;;;;;;18.67;16.75;;;;;;;7.93;87.29;95133.19;4196867;28;20056;-69
2023/11/23 06:12:31;;;;;;;19.80;17.52;;;;;;;7.79;87.25;95137.00;4195945;28;20143;-70
2023/11/23 06:14:33;;;;;;;19.55;17.55;;;;;;;7.71;87.16;95135.03;4188917;28;20501;-68
2023/11/23 06:16:35;;;;;;;21.52;17.60;;;;;;;7.79;87.79;95131.78;4192574;28;20542;-71
2023/11/23 06:18:38;;;;;;;18.13;16.23;;;;;;;7.90;87.34;95136.06;4162150;28;20099;-70
2023/11/23 06:20:40;;;;;;;17.67;15.55;;;;;;;7.94;87.04;95142.69;4177109;28;20052;-71
2023/11/23 06:22:42;;;;;;;17.30;14.98;;;;;;;7.98;86.87;95146.69;4193585;28;20061;-69
2023/11/23 06:24:44;;;;;;;13.98;12.35;;;;;;;7.95;86.75;95158.19;4195171;28;20084;-70
2023/11/23 06:26:46;;;;;;;14.65;12.00;;;;;;;7.99;86.55;95158.75;4195321;28;20466;-70
2023/11/23 06:28:48;;;;;;;12.32;10.82;;;;;;;7.97;86.52;95160.66;4187540;28;20053;-71
2023/11/23 06:30:51;;;;;;;17.60;12.60;;;;;;;7.98;86.05;95157.13;4191873;28;20053;-71
2023/11/23 06:32:52;;;;;;;13.43;12.02;;;;;;;8.09;86.91;95153.59;4184758;28;20459;-70
2023/11/23 06:34:54;;;;;;;14.45;12.95;;;;;;;8.12;86.10;95148.09;4184898;28;20049;-69
2023/11/23 06:36:56;;;;;;;13.23;11.82;;;;;;;8.18;85.54;95143.16;4185911;28;20054;-70
2023/11/23 06:38:58;;;;;;;15.80;13.50;;;;;;;8.21;85.19;95144.66;4194186;28;20047;-70
2023/11/23 06:41:00;;;;;;;16.08;14.27;;;;;;;8.31;85.81;95134.25;4195532;28;20045;-69
2023/11/23 06:43:02;;;;;;;20.05;15.82;;;;;;;8.38;85.42;95136.19;4188953;28;20182;-71
2023/11/23 06:45:04;;;;;;;18.08;16.10;;;;;;;8.51;85.95;95135.16;4189588;28;20052;-68
2023/11/23 06:47:06;;;;;;;18.48;15.00;;;;;;;8.47;83.89;95137.19;4187798;28;20048;-68
2023/11/23 06:49:09;;;;;;;16.98;15.15;;;;;;;8.39;84.70;95137.84;4172649;28;20079;-71
2023/11/23 06:51:11;;;;;;;17.60;14.73;;;;;;;8.45;83.95;95140.91;4193735;28;20168;-70
2023/11/23 06:53:13;;;;;;;21.55;18.20;;;;;;;8.45;83.87;95138.28;4176236;28;20061;-69
2023/11/23 06:55:15;;;;;;;18.67;16.65;;;;;;;8.42;84.32;95147.22;4178189;28;20123;-69
2023/11/23 06:57:17;;;;;;;19.20;17.10;;;;;;;8.45;84.22;95138.28;4177552;28;20535;-70
2023/11/23 06:59:19;;;;;;;20.63;16.08;;;;;;;8.42;84.78;95139.41;4195292;28;20082;-70
2023/11/23 07:01:21;;;;;;;23.48;17.00;;;;;;;8.31;84.57;95142.09;4195095;28;20055;-68
2023/11/23 07:03:23;;;;;;;19.90;16.70;;;;;;;8.28;84.69;95134.50;4197898;28;20048;-69
2023/11/23 07:05:26;;;;;;;22.38;17.77;;;;;;;8.11;85.52;95134.22;4195816;28;20049;-68
2023/11/23 07:07:28;;;;;;;23.60;19.38;;;;;;;8.06;86.06;95127.75;4178149;28;20049;-71
2023/11/23 07:09:30;;;;;;;24.02;20.17;;;;;;;7.98;86.39;95128.41;4177799;28;20048;-71
2023/11/23 07:11:31;;;;;;;23.92;19.20;;;;;;;7.97;86.90;95129.34;4195045;28;20681;-69
2023/11/23 07:13:34;;;;;;;24.73;19.30;;;;;;;8.04;87.66;95135.69;4195936;28;20055;-70
2023/11/23 07:15:36;;;;;;;24.38;19.25;;;;;;;8.12;87.11;95141.06;4177299;28;20084;-69
2023/11/23 07:17:41;;;;;;;21.95;17.77;;;;;;;8.21;87.75;95153.31;4191138;28;20072;-70
2023/11/23 07:19:44;;;;;;;24.20;18.38;;;;;;;8.15;86.62;95155.63;4189699;28;20113;-68
2023/11/23 07:21:47;;;;;;;23.80;18.02;;;;;;;8.15;86.92;95151.25;4177572;28;20484;-70
2023/11/23 07:23:49;;;;;;;23.48;18.63;;;;;;;8.10;86.92;95155.22;4183528;28;20403;-67
2023/11/23 07:25:52;;;;;;;22.25;18.70;;;;;;;7.92;87.84;95157.63;4177695;28;20053;-72
2023/11/23 07:27:54;;;;;;;25.95;19.35;;;;;;;7.87;88.49;95165.88;4195276;28;20090;-72
2023/11/23 07:29:56;;;;;;;25.20;20.92;;;;;;;7.85;89.05;95166.94;4195024;28;20067;-71
2023/11/23 07:31:58;;;;;;;24.88;18.77;;;;;;;8.00;89.62;95160.38;4176816;28;20053;-69
2023/11/23 07:34:02;;;;;;;24.67;20.70;;;;;;;8.12;89.33;95154.13;4195788;28;20044;-69
2023/11/23 07:36:05;;;;;;;29.67;22.13;;;;;;;7.99;88.20;95150.94;4195855;28;20053;-72
2023/11/23 07:38:07;;;;;;;28.13;21.70;;;;;;;8.12;88.76;95146.28;4178104;28;20128;-70
2023/11/23 07:40:12;;;;;;;29.10;23.35;;;;;;;8.17;87.87;95149.34;4195369;28;20045;-70
2023/11/23 07:42:16;;;;;;;29.48;22.42;;;;;;;8.22;87.80;95154.16;4178247;28;20407;-70
2023/11/23 07:44:20;;;;;;;26.95;23.13;;;;;;;8.25;87.69;95153.06;4177800;28;20056;-69
2023/11/23 07:46:22;;;;;;;31.45;24.90;;;;;;;8.23;86.94;95154.97;4190694;28;20057;-71
2023/11/23 07:48:26;;;;;;;33.65;24.58;;;;;;;8.32;87.26;95149.78;4195942;28;20466;-70
2023/11/23 07:50:28;;;;;;;31.25;25.02;;;;;;;8.42;87.28;95154.25;4195619;28;20052;-70
2023/11/23 07:52:31;;;;;;;30.25;24.02;;;;;;;8.55;87.27;95149.59;4176790;28;20132;-71
2023/11/23 07:54:33;;;;;;;28.30;23.33;;;;;;;8.68;87.24;95154.53;4198135;28;20052;-72
2023/11/23 07:56:35;;;;;;;26.98;22.05;;;;;;;8.80;86.95;95143.00;4196590;28;20052;-70
2023/11/23 07:58:36;;;;;;;27.90;22.23;;;;;;;8.87;85.95;95156.34;4191559;28;20465;-69
2023/11/23 08:00:40;;;;;;;36.83;27.58;;;;;;;8.82;85.51;95141.09;4193240;28;20076;-71
2023/11/23 08:02:42;;;;;;;32.05;24.80;;;;;;;8.88;85.13;95144.91;4198875;28;20098;-70
2023/11/23 08:04:44;;;;;;;33.30;22.48;;;;;;;8.91;84.77;95140.25;4198316;28;20490;-71
2023/11/23 08:06:46;;;;;;;28.33;21.77;;;;;;;8.90;84.87;95141.19;4197741;28;20094;-69
2023/11/23 08:08:49;;;;;;;28.60;22.63;;;;;;;8.98;84.69;95143.97;4180477;28;20053;-68
2023/11/23 08:10:51;;;;;;;23.27;20.13;;;;;;;9.04;85.01;95134.75;4197707;28;20052;-69
2023/11/23 08:12:53;;;;;;;22.40;18.98;;;;;;;9.05;84.07;95135.56;4175280;28;20050;-70
2023/11/23 08:14:56;;;;;;;21.65;18.92;;;;;;;8.97;84.09;95137.09;4165432;28;20080;-72
2023/11/23 08:16:58;;;;;;;21.03;18.77;;;;;;;8.84;83.66;95136.56;4194371;28;20049;-69
2023/11/23 08:19:00;;;;;;;23.13;19.15;;;;;;;8.88;83.91;95137.09;4184335;28;20277;-69
2023/11/23 08:21:03;;;;;;;20.98;17.38;;;;;;;8.89;83.63;95136.97;4189083;28;20048;-72
2023/11/23 08:23:05;;;;;;;19.75;17.45;;;;;;;8.95;83.67;95136.41;4197437;28;20076;-70
2023/11/23 08:25:07;;;;;;;20.45;17.65;;;;;;;8.99;83.75;95129.94;4173800;28;20098;-69
2023/11/23 08:27:09;;;;;;;21.23;17.75;;;;;;;9.01;83.77;95138.47;4173041;28;20080;-71
2023/11/23 08:29:11;;;;;;;20.05;17.02;;;;;;;9.07;83.90;95144.09;4189856;28;20048;-72
2023/11/23 08:31:13;;;;;;;21.52;18.17;;;;;;;9.13;83.77;95156.63;4197068;28;20079;-70
2023/11/23 08:33:15;;;;;;;20.10;16.40;;;;;;;9.20;83.75;95150.66;4190400;28;20488;-69
2023/11/23 08:35:17;;;;;;;20.45;16.50;;;;;;;9.25;83.40;95155.50;4187413;28;20056;-71
2023/11/23 08:37:19;;;;;;;23.08;17.27;;;;;;;9.31;83.54;95156.72;4180252;28;20430;-69
2023/11/23 08:39:40;;;;;;;18.90;16.85;;;;;;;9.37;83.33;95153.56;4175343;28;20111;-70
2023/11/23 08:41:42;;;;;;;23.55;17.55;;;;;;;9.40;83.25;95146.25;4177467;28;20091;-70
2023/11/23 08:43:47;;;;;;;19.67;15.32;;;;;;;9.45;82.73;95142.41;4193853;28;20052;-71
2023/11/23 08:45:49;;;;;;;16.38;14.30;;;;;;;9.47;82.62;95141.28;4197238;28;20478;-70
2023/11/23 08:47:52;;;;;;;19.60;17.08;;;;;;;9.48;81.62;95144.72;4189312;28;20061;-71
2023/11/23 08:49:55;;;;;;;28.25;22.65;;;;;;;9.50;81.53;95143.59;4193172;28;20044;-69
2023/11/23 08:51:57;;;;;;;22.85;19.77;;;;;;;9.54;81.60;95146.78;4195542;28;20114;-68
2023/11/23 08:53:59;;;;;;;28.23;24.05;;;;;;;9.56;81.40;95150.06;4192554;28;20084;-71
2023/11/23 08:56:04;;;;;;;36.17;29.25;;;;;;;9.54;81.55;95152.81;4190510;28;20068;-70
2023/11/23 08:58:05;;;;;;;36.20;28.85;;;;;;;9.54;80.89;95139.75;4193837;28;20140;-69
2023/11/23 09:00:11;;;;;;;34.67;27.40;;;;;;;9.58;81.11;95140.28;4194902;28;20044;-69
2023/11/23 09:02:13;;;;;;;17.33;15.10;;;;;;;9.61;81.06;95138.22;4190999;28;20063;-71
2023/11/23 09:04:21;;;;;;;15.07;13.43;;;;;;;9.61;81.08;95137.38;4191288;28;20526;-71
2023/11/23 09:06:33;;;;;;;15.27;12.45;;;;;;;9.64;81.04;95139.72;4192065;28;20056;-71
2023/11/23 09:08:35;;;;;;;18.20;14.45;;;;;;;9.63;81.05;95132.84;4198614;28;20410;-70
2023/11/23 09:10:37;;;;;;;16.48;14.40;;;;;;;9.66;80.86;95129.94;4197582;28;20053;-68
2023/11/23 09:12:39;;;;;;;15.73;12.30;;;;;;;9.68;81.30;95138.47;4193937;28;20384;-74
2023/11/23 09:14:40;;;;;;;14.23;12.50;;;;;;;9.73;81.07;95136.25;4172840;28;20081;-71
2023/11/23 09:16:50;;;;;;;20.50;13.73;;;;;;;9.74;80.80;95130.03;4196565;28;20049;-69
2023/11/23 09:18:53;;;;;;;14.95;13.35;;;;;;;9.77;80.89;95132.38;4192192;28;20056;-73
2023/11/23 09:20:55;;;;;;;16.30;14.13;;;;;;;9.81;80.37;95117.22;4173860;28;20044;-69
2023/11/23 09:23:02;;;;;;;14.75;12.55;;;;;;;9.84;80.37;95114.31;4164322;28;20056;-69
2023/11/23 09:25:06;;;;;;;17.45;13.43;;;;;;;9.83;80.21;95121.34;4192876;28;20041;-70
2023/11/23 09:27:09;;;;;;;;;;;;;;;9.85;80.44;95123.78;4183088;28;20052;-72
2023/11/23 09:29:11;;;;;;;18.13;13.02;;;;;;;9.78;79.88;95127.97;4194386;28;19920;-70
2023/11/23 09:31:17;;;;;;;16.00;12.85;;;;;;;9.65;80.46;95120.44;4190442;28;20123;-69
2023/11/23 09:33:21;;;;;;;16.05;12.45;;;;;;;9.62;80.08;95115.50;4188008;28;20479;-69
2023/11/23 09:35:26;;;;;;;15.45;12.55;;;;;;;9.65;81.16;95115.22;4163434;28;20064;-70
2023/11/23 09:37:28;;;;;;;15.07;12.90;;;;;;;9.69;80.81;95107.91;4186246;28;20080;-71
2023/11/23 09:39:31;;;;;;;14.27;12.77;;;;;;;9.70;80.75;95110.38;4193261;28;20479;-69